Time;durP1;ratioP1;P1;durP2;ratioP2;P2;SDS_P1;SDS_P2;PMS_P1;PMS_P2;Temp;Humidity;BMP_temperature;BMP_pressure;BME280_temperature;BME280_humidity;BME280_pressure;Samples;Min_cycle;Max_cycle;Signal;HPM_P1;HPM_P2
2023/09/20 00:02:03;;;;;;;12.98;2.65;;;18.30;99.90;;;18.46;61.42;99970.50;4901589;29;20399;-90
2023/09/20 00:04:35;;;;;;;10.30;2.45;;;18.30;99.90;;;18.42;61.11;99984.84;4901549;29;20063;-90
2023/09/20 00:07:07;;;;;;;10.38;2.33;;;18.30;99.90;;;18.44;61.52;99974.56;4918177;29;20090;-89
2023/09/20 00:09:34;;;;;;;6.05;2.10;;;18.30;99.90;;;18.39;61.48;99975.38;4886208;29;20107;-90
2023/09/20 00:12:02;;;;;;;6.55;2.15;;;18.30;99.90;;;18.33;61.40;99970.28;4901536;29;20072;-90
2023/09/20 00:14:30;;;;;;;6.05;2.22;;;18.20;99.90;;;18.31;61.77;99973.25;4917833;29;20522;-89
2023/09/20 00:17:00;;;;;;;8.55;2.25;;;18.20;99.90;;;18.37;61.79;99972.16;4886790;29;20052;-90
2023/09/20 00:19:27;;;;;;;7.13;2.15;;;18.20;99.90;;;18.36;61.79;99967.84;4918266;29;20135;-89
2023/09/20 00:21:56;;;;;;;11.43;2.20;;;18.20;99.90;;;18.36;61.84;99977.84;4918570;29;20123;-90
2023/09/20 00:24:24;;;;;;;14.60;2.63;;;18.20;99.90;;;18.37;61.44;99972.16;4886347;29;20521;-90
2023/09/20 00:26:51;;;;;;;11.73;2.33;;;18.20;99.90;;;18.34;62.01;99982.69;4870671;29;20052;-90
2023/09/20 00:29:19;;;;;;;9.60;2.33;;;18.20;99.90;;;18.29;61.56;99972.72;4918408;29;20103;-90
2023/09/20 00:31:46;;;;;;;9.63;2.83;;;18.10;99.90;;;18.28;61.87;99977.31;4885366;29;20509;-90
2023/09/20 00:34:17;;;;;;;8.35;2.10;;;18.10;99.90;;;18.27;62.02;99967.59;4918014;29;20083;-90
2023/09/20 00:36:44;;;;;;;8.80;2.20;;;18.10;99.90;;;18.27;62.00;99978.41;4900651;29;20044;-90
2023/09/20 00:39:14;;;;;;;10.52;2.33;;;18.10;99.90;;;18.31;62.18;99972.47;4916449;29;20052;-90
2023/09/20 00:41:42;;;;;;;6.90;2.15;;;18.10;99.90;;;18.31;62.18;99975.16;4901176;29;20044;-89
2023/09/20 00:44:09;;;;;;;8.35;2.75;;;18.10;99.90;;;18.33;61.94;99976.47;4900780;29;20134;-89
2023/09/20 00:46:38;;;;;;;6.22;2.17;;;18.10;99.90;;;18.30;62.15;99971.66;4901120;29;20071;-90
2023/09/20 00:49:08;;;;;;;7.57;2.28;;;18.10;99.90;;;18.26;62.08;99970.56;4886373;29;20072;-89
2023/09/20 00:51:36;;;;;;;6.00;2.00;;;18.10;99.90;;;18.27;62.95;99962.19;4916680;29;20063;-89
2023/09/20 00:54:07;;;;;;;6.22;2.08;;;18.10;99.90;;;18.28;62.55;99966.50;4901105;29;20506;-90
2023/09/20 00:56:36;;;;;;;;;;;18.10;99.90;;;18.28;62.65;99966.50;4901202;29;20107;-90
2023/09/20 00:59:06;;;;;;;8.02;2.17;;;18.10;99.90;;;18.26;62.87;99970.56;4916570;29;19924;-90
2023/09/20 01:01:35;;;;;;;7.35;2.17;;;18.10;99.90;;;18.30;62.80;99968.94;4886652;29;20044;-90
2023/09/20 01:04:03;;;;;;;10.18;2.30;;;18.10;99.90;;;18.33;62.93;99964.88;4902153;29;20421;-90
2023/09/20 01:06:32;;;;;;;7.05;2.30;;;18.10;99.90;;;18.30;62.35;99971.66;4901471;29;20161;-89
2023/09/20 01:08:59;;;;;;;7.15;2.10;;;18.10;99.90;;;18.32;62.91;99971.38;4900326;29;20096;-90
2023/09/20 01:11:28;;;;;;;5.95;2.10;;;18.10;99.90;;;18.26;62.64;99973.28;4901528;29;20064;-90
2023/09/20 01:13:59;;;;;;;7.65;2.20;;;18.10;99.90;;;18.23;62.83;99980.03;4901824;29;20044;-89
2023/09/20 01:16:27;;;;;;;;;;;18.10;99.90;;;18.22;62.92;99964.91;4902098;29;20056;-90
2023/09/20 01:18:54;;;;;;;10.32;2.00;;;18.10;99.90;;;18.20;63.06;99960.84;4885933;29;19974;-89
2023/09/20 01:21:22;;;;;;;5.53;2.15;;;18.10;99.90;;;18.17;63.37;99966.81;4916132;29;20056;-90
2023/09/20 01:23:53;;;;;;;8.23;2.78;;;18.00;99.90;;;18.22;63.64;99958.72;4900343;29;20131;-90
2023/09/20 01:26:22;;;;;;;9.50;2.20;;;18.00;99.90;;;18.23;63.35;99963.03;4916827;29;20048;-89
2023/09/20 01:28:50;;;;;;;8.77;2.28;;;18.00;99.90;;;18.25;63.26;99966.25;4900778;29;20046;-90
2023/09/20 01:31:17;;;;;;;8.93;2.53;;;18.00;99.90;;;18.17;63.32;99962.22;4884688;29;20469;-89
2023/09/20 01:33:45;;;;;;;10.70;2.53;;;18.00;99.90;;;18.12;63.68;99956.84;4918115;29;20052;-89
2023/09/20 01:36:12;;;;;;;8.30;2.10;;;17.90;99.90;;;18.12;63.52;99958.75;4903495;29;20055;-90
2023/09/20 01:38:40;;;;;;;11.20;2.40;;;17.90;99.90;;;18.12;63.61;99970.34;4903007;29;20096;-89
2023/09/20 01:41:09;;;;;;;6.97;2.40;;;17.90;99.90;;;18.11;63.63;99966.03;4902566;29;20059;-89
2023/09/20 01:43:38;;;;;;;6.53;2.15;;;17.90;99.90;;;18.17;63.89;99967.63;4918132;29;20075;-89
2023/09/20 01:46:09;;;;;;;8.68;2.53;;;17.90;99.90;;;18.16;63.71;99973.31;4918033;29;20054;-89
2023/09/20 01:48:40;;;;;;;7.97;2.10;;;17.90;99.90;;;18.19;63.88;99970.03;4918975;29;20045;-90
2023/09/20 01:51:07;;;;;;;9.43;2.10;;;17.90;99.90;;;18.19;63.76;99964.66;4918491;29;20044;-90
2023/09/20 01:53:35;;;;;;;9.23;2.72;;;17.90;99.90;;;18.15;63.64;99958.16;4888691;29;20060;-90
2023/09/20 01:56:06;;;;;;;9.93;2.35;;;17.90;99.90;;;18.11;63.79;99967.91;4903751;29;20147;-90
2023/09/20 01:58:40;;;;;;;8.82;2.60;;;17.80;99.90;;;18.12;64.09;99959.53;4903608;29;20158;-90
2023/09/20 02:01:08;;;;;;;6.53;2.10;;;17.80;99.90;;;18.08;64.02;99955.75;4919310;29;20083;-90
2023/09/20 02:03:36;;;;;;;8.65;2.38;;;17.80;99.90;;;18.09;63.89;99962.78;4904084;29;20048;-90
2023/09/20 02:06:04;;;;;;;9.57;2.10;;;17.80;99.90;;;18.10;63.69;99948.19;4903228;29;20048;-90
2023/09/20 02:08:32;;;;;;;8.68;2.17;;;17.80;99.90;;;18.09;63.46;99946.59;4919614;29;20044;-90
2023/09/20 02:11:03;;;;;;;7.25;2.17;;;17.80;99.90;;;18.05;63.85;99947.41;4903442;29;20112;-90
2023/09/20 02:13:31;;;;;;;8.82;2.60;;;17.80;99.90;;;18.08;64.16;99950.38;4903284;29;20402;-89
2023/09/20 02:16:00;;;;;;;8.15;2.38;;;17.80;99.90;;;18.07;64.13;99943.34;4903484;29;20052;-90
2023/09/20 02:18:28;;;;;;;5.88;2.10;;;17.70;99.90;;;18.08;64.15;99941.47;4920383;29;20054;-89
2023/09/20 02:20:56;;;;;;;7.38;1.88;;;17.70;99.90;;;18.05;63.74;99939.31;4903282;29;20052;-89
2023/09/20 02:23:23;;;;;;;9.88;3.05;;;17.70;99.90;;;18.02;64.05;99941.47;4903321;29;20048;-90
2023/09/20 02:25:54;;;;;;;6.78;2.33;;;17.70;99.90;;;18.00;64.08;99935.53;4887686;29;20138;-89
2023/09/20 02:28:21;;;;;;;12.55;2.70;;;17.70;99.90;;;17.97;64.43;99938.00;4918748;29;20100;-89
2023/09/20 02:30:50;;;;;;;7.05;2.10;;;17.60;99.90;;;17.98;64.55;99937.72;4888073;29;20136;-90
2023/09/20 02:33:19;;;;;;;6.50;2.22;;;17.60;99.90;;;17.99;64.87;99933.13;4887709;29;20564;-89
2023/09/20 02:35:47;;;;;;;10.32;2.63;;;17.60;99.90;;;17.99;64.78;99933.91;4887539;29;20044;-90
2023/09/20 02:38:15;;;;;;;5.95;2.05;;;17.60;99.90;;;18.04;64.91;99940.41;4912055;29;20237;-90
2023/09/20 02:40:46;;;;;;;10.00;2.60;;;17.60;99.90;;;17.98;64.87;99936.91;4903268;29;20044;-90
2023/09/20 02:43:13;;;;;;;7.00;2.05;;;17.60;99.90;;;17.98;64.83;99932.31;4918743;29;20421;-89
2023/09/20 02:45:46;;;;;;;8.93;2.20;;;17.60;99.90;;;17.99;65.21;99925.81;4902830;29;20470;-90
2023/09/20 02:48:14;;;;;;;7.22;2.40;;;17.60;99.90;;;17.92;64.98;99928.00;4895208;29;20047;-90
2023/09/20 02:50:44;;;;;;;6.25;2.42;;;17.50;99.90;;;17.92;65.29;99919.91;4887190;29;20505;-89
2023/09/20 02:53:12;;;;;;;11.40;2.65;;;17.50;99.90;;;17.85;65.32;99921.28;4919905;29;20068;-90
2023/09/20 02:55:40;;;;;;;6.18;2.25;;;17.50;99.90;;;17.92;65.30;99919.13;4902725;29;20052;-90
2023/09/20 02:58:09;;;;;;;7.35;2.38;;;17.50;99.90;;;17.92;65.05;99921.81;4918561;29;20063;-90
2023/09/20 03:00:39;;;;;;;9.77;2.50;;;17.50;99.90;;;17.91;65.68;99915.59;4919863;29;20048;-89
2023/09/20 03:03:07;;;;;;;5.30;2.40;;;17.50;99.90;;;17.90;65.45;99916.66;4901846;29;20103;-89
2023/09/20 03:05:38;;;;;;;8.23;2.60;;;17.50;99.90;;;17.85;65.58;99913.19;4902904;29;20573;-90
2023/09/20 03:08:11;;;;;;;6.13;2.42;;;17.40;99.90;;;17.84;65.75;99906.97;4895232;29;20044;-90
2023/09/20 03:10:41;;;;;;;9.55;2.53;;;17.40;99.90;;;17.84;65.65;99901.59;4902708;29;20044;-89
2023/09/20 03:13:16;;;;;;;4.65;2.00;;;17.40;99.90;;;17.81;66.03;99899.41;4902466;29;20429;-90
2023/09/20 03:15:44;;;;;;;6.82;2.50;;;17.40;99.90;;;17.82;65.05;99897.56;4902535;29;20063;-89
2023/09/20 03:18:14;;;;;;;9.75;2.63;;;17.40;99.90;;;17.74;65.99;99901.59;4871843;29;20075;-89
2023/09/20 03:20:48;;;;;;;6.10;2.10;;;17.40;99.90;;;17.75;65.87;99889.72;4903112;29;20059;-89
2023/09/20 03:23:20;;;;;;;6.55;2.03;;;17.30;99.90;;;17.75;66.10;99890.53;4911566;29;20056;-90
2023/09/20 03:25:48;;;;;;;6.57;2.30;;;17.40;99.90;;;17.79;65.75;99885.41;4901982;29;20055;-90
2023/09/20 03:28:22;;;;;;;10.60;2.65;;;17.40;99.90;;;17.79;65.72;99881.91;4887478;29;20052;-90
2023/09/20 03:30:51;;;;;;;11.02;2.50;;;17.40;99.90;;;17.80;65.80;99883.50;4919191;29;20048;-89
2023/09/20 03:33:23;;;;;;;9.32;2.47;;;17.40;99.90;;;17.81;65.81;99883.22;4902314;29;20052;-89
2023/09/20 03:35:52;;;;;;;8.10;2.30;;;17.40;99.90;;;17.80;66.07;99878.13;4902666;29;20048;-90
2023/09/20 03:38:21;;;;;;;9.32;2.50;;;17.40;99.90;;;17.80;66.30;99875.44;4901993;29;20044;-89
2023/09/20 03:40:49;;;;;;;6.40;2.20;;;17.40;99.90;;;17.81;66.16;99875.13;4886465;29;20046;-89
2023/09/20 03:43:17;;;;;;;7.25;2.70;;;17.40;99.90;;;17.82;66.04;99878.69;4918563;29;20055;-90
2023/09/20 03:45:52;;;;;;;7.93;2.40;;;17.40;99.90;;;17.82;65.75;99873.28;4918025;29;20048;-90
2023/09/20 03:48:19;;;;;;;8.77;2.40;;;17.40;99.90;;;17.82;65.75;99866.00;4901834;29;20123;-89
2023/09/20 03:50:49;;;;;;;6.75;2.30;;;17.40;99.90;;;17.81;66.15;99869.75;4887107;29;20044;-89
2023/09/20 03:53:17;;;;;;;5.17;2.00;;;17.40;99.90;;;17.80;66.35;99867.31;4902632;29;20058;-90
2023/09/20 03:55:49;;;;;;;10.45;2.80;;;17.30;99.90;;;17.78;66.20;99872.19;4918162;29;20433;-90
2023/09/20 03:58:21;;;;;;;6.75;2.58;;;17.30;99.90;;;17.73;66.23;99873.03;4903152;29;20052;-90
2023/09/20 04:00:50;;;;;;;6.47;2.22;;;17.30;99.90;;;17.71;66.60;99867.03;4902495;29;20497;-89
2023/09/20 04:03:18;;;;;;;8.80;2.72;;;17.30;99.90;;;17.68;66.60;99868.41;4918952;29;20517;-90
2023/09/20 04:05:47;;;;;;;7.45;2.00;;;17.30;99.90;;;17.71;66.74;99859.78;4917501;29;20052;-89
2023/09/20 04:08:18;;;;;;;7.70;2.72;;;17.30;99.90;;;17.73;66.47;99859.53;4901167;29;20051;-89
2023/09/20 04:10:48;;;;;;;11.80;2.40;;;17.30;99.90;;;17.74;66.31;99853.06;4916856;29;20454;-89
2023/09/20 04:13:21;;;;;;;8.30;2.63;;;17.30;99.90;;;17.73;66.62;99841.47;4901443;29;20046;-88
2023/09/20 04:15:49;;;;;;;8.32;2.63;;;17.30;99.90;;;17.76;66.45;99842.78;4901749;29;20066;-88
2023/09/20 04:18:16;;;;;;;6.90;2.40;;;17.30;99.90;;;17.75;66.51;99846.56;4901251;29;20072;-88
2023/09/20 04:20:47;;;;;;;8.00;3.08;;;17.30;99.90;;;17.71;66.71;99840.91;4902018;29;20147;-88
2023/09/20 04:23:14;;;;;;;7.80;2.50;;;17.30;99.90;;;17.72;66.82;99841.72;4887685;29;20058;-88
2023/09/20 04:25:42;;;;;;;8.13;2.75;;;17.20;99.90;;;17.70;66.78;99843.84;4917284;29;20044;-88
2023/09/20 04:28:11;;;;;;;8.73;2.60;;;17.20;99.90;;;17.69;66.57;99831.47;4870275;29;20048;-88
2023/09/20 04:30:40;;;;;;;10.02;2.80;;;17.20;99.90;;;17.68;66.93;99843.34;4900989;29;20139;-88
2023/09/20 04:33:10;;;;;;;6.00;2.72;;;17.20;99.90;;;17.63;67.04;99841.44;4901317;29;20474;-88
2023/09/20 04:35:41;;;;;;;11.30;2.75;;;17.20;99.90;;;17.60;66.89;99833.09;4916948;29;20051;-88
2023/09/20 04:38:15;;;;;;;6.75;2.30;;;17.20;99.90;;;17.59;67.22;99836.88;4900959;29;20072;-88
2023/09/20 04:40:42;;;;;;;7.85;2.35;;;17.20;99.90;;;17.61;67.41;99834.72;4916704;29;20046;-88
2023/09/20 04:43:14;;;;;;;9.30;2.50;;;17.20;99.90;;;17.62;67.14;99836.34;4900858;29;20048;-88
2023/09/20 04:45:43;;;;;;;7.72;2.60;;;17.20;99.90;;;17.64;67.31;99839.56;4900770;29;20043;-88
2023/09/20 04:48:10;;;;;;;7.47;2.30;;;17.20;99.90;;;17.65;67.07;99833.09;4885054;29;20075;-88
2023/09/20 04:50:38;;;;;;;4.93;2.08;;;17.20;99.90;;;17.68;67.00;99832.53;4900782;29;20503;-88
2023/09/20 04:53:08;;;;;;;9.35;2.63;;;17.20;99.90;;;17.67;67.13;99839.03;4901543;29;20051;-87
2023/09/20 04:55:36;;;;;;;7.93;2.80;;;17.20;99.90;;;17.67;67.34;99841.72;4886205;29;20120;-87
2023/09/20 04:58:06;;;;;;;6.93;2.70;;;17.20;99.90;;;17.63;67.45;99837.97;4901201;29;20110;-87
2023/09/20 05:00:42;;;;;;;9.32;2.90;;;17.20;99.90;;;17.63;67.55;99840.66;4886575;29;20047;-87
2023/09/20 05:03:14;;;;;;;7.18;2.85;;;17.20;99.90;;;17.62;67.73;99839.84;4919311;29;20052;-88
2023/09/20 05:05:44;;;;;;;6.10;2.40;;;17.20;99.90;;;17.64;67.79;99839.56;4902638;29;20479;-88
2023/09/20 05:08:15;;;;;;;8.90;2.80;;;17.20;99.90;;;17.63;67.92;99846.03;4918844;29;20044;-88
2023/09/20 05:10:43;;;;;;;6.35;2.42;;;17.20;99.90;;;17.61;67.75;99845.50;4901984;29;20072;-87
2023/09/20 05:13:11;;;;;;;8.07;2.67;;;17.20;99.90;;;17.60;67.87;99850.06;4886485;29;20143;-88
2023/09/20 05:15:44;;;;;;;11.05;2.72;;;17.20;99.90;;;17.61;67.89;99845.50;4917163;29;20076;-88
2023/09/20 05:18:13;;;;;;;5.13;2.47;;;17.20;99.90;;;17.62;67.97;99849.81;4885557;29;20048;-87
2023/09/20 05:20:48;;;;;;;8.20;2.70;;;17.20;99.90;;;17.59;68.25;99848.47;4900684;29;20048;-88
2023/09/20 05:23:16;;;;;;;9.40;2.75;;;17.20;99.90;;;17.59;68.30;99847.66;4900372;29;20115;-88
2023/09/20 05:25:44;;;;;;;8.93;2.90;;;17.20;99.90;;;17.57;68.33;99842.56;4917599;29;20040;-88
2023/09/20 05:28:14;;;;;;;5.88;2.58;;;17.20;99.90;;;17.56;68.53;99842.81;4904203;29;20052;-88
2023/09/20 05:30:52;;;;;;;9.18;2.80;;;17.20;99.90;;;17.53;68.54;99837.97;4905018;29;20143;-87
2023/09/20 05:33:22;;;;;;;6.40;2.83;;;17.20;99.90;;;17.55;68.73;99836.59;4889303;29;20052;-87
2023/09/20 05:35:52;;;;;;;7.82;2.63;;;17.10;99.90;;;17.49;69.03;99835.81;4920027;29;20505;-87
2023/09/20 05:38:21;;;;;;;7.60;2.78;;;17.20;99.90;;;17.53;68.79;99840.66;4904509;29;20071;-87
2023/09/20 05:40:49;;;;;;;6.68;2.50;;;17.20;99.90;;;17.56;68.79;99837.41;4920172;29;20494;-87
2023/09/20 05:43:17;;;;;;;10.90;3.35;;;17.20;99.90;;;17.59;68.47;99835.00;4921258;29;20051;-88
2023/09/20 05:45:46;;;;;;;9.27;3.08;;;17.20;99.90;;;17.60;68.64;99831.19;4888723;29;20052;-87
2023/09/20 05:48:14;;;;;;;5.50;2.40;;;17.30;99.90;;;17.63;68.28;99835.25;4912652;29;20497;-88
2023/09/20 05:50:42;;;;;;;8.25;2.88;;;17.30;99.90;;;17.65;68.43;99830.38;4920290;29;20505;-88
2023/09/20 05:53:11;;;;;;;9.52;3.10;;;17.30;99.90;;;17.67;68.57;99829.03;4904744;29;20059;-88
2023/09/20 05:55:44;;;;;;;7.28;2.50;;;17.30;99.90;;;17.69;68.50;99826.06;4920288;29;20044;-89
2023/09/20 05:58:12;;;;;;;7.65;2.60;;;17.30;99.90;;;17.66;68.83;99827.41;4904010;29;20135;-89
2023/09/20 06:00:40;;;;;;;6.10;2.60;;;17.30;99.90;;;17.69;68.33;99831.47;4888371;29;20413;-87
2023/09/20 06:03:11;;;;;;;7.68;2.50;;;17.40;99.90;;;17.73;68.70;99827.16;4903791;29;20051;-88
2023/09/20 06:05:39;;;;;;;7.47;2.63;;;17.40;99.90;;;17.77;68.71;99822.03;4920639;29;20394;-87
2023/09/20 06:08:07;;;;;;;5.55;2.72;;;17.40;99.90;;;17.79;68.78;99814.47;4920439;29;20513;-88
2023/09/20 06:10:38;;;;;;;9.15;3.00;;;17.40;99.90;;;17.79;68.82;99825.25;4919964;29;20047;-87
2023/09/20 06:13:08;;;;;;;5.68;2.60;;;17.40;99.90;;;17.73;68.97;99821.78;4903440;29;20059;-86
2023/09/20 06:15:37;;;;;;;12.65;2.85;;;17.40;99.90;;;17.73;69.10;99821.78;4902880;29;20047;-86
2023/09/20 06:18:06;;;;;;;10.30;2.80;;;17.40;99.90;;;17.77;68.91;99817.44;4903257;29;20044;-86
2023/09/20 06:20:45;;;;;;;7.32;2.50;;;17.50;99.90;;;17.82;68.69;99816.63;4920800;29;20519;-85
2023/09/20 06:23:14;;;;;;;8.23;2.88;;;17.50;99.90;;;17.84;69.22;99819.84;4904470;29;20051;-85
2023/09/20 06:25:42;;;;;;;11.50;3.03;;;17.50;99.90;;;17.88;69.28;99813.63;4919905;29;20051;-85
2023/09/20 06:28:09;;;;;;;9.43;2.63;;;17.60;99.90;;;17.94;69.00;99811.72;4919585;29;20058;-85
2023/09/20 06:30:37;;;;;;;7.72;2.60;;;17.70;99.90;;;17.94;68.73;99817.09;4902682;29;20048;-85
2023/09/20 06:33:05;;;;;;;9.98;2.80;;;17.70;99.90;;;17.92;68.72;99820.09;4856291;29;20044;-85
2023/09/20 06:35:41;;;;;;;8.05;2.72;;;17.80;99.90;;;17.93;68.62;99815.50;4918668;29;20051;-85
2023/09/20 06:38:09;;;;;;;8.55;2.40;;;17.80;99.90;;;17.93;68.38;99823.59;4919103;29;20486;-85
2023/09/20 06:40:39;;;;;;;9.43;2.30;;;17.80;99.90;;;18.04;68.61;99827.06;4903274;29;20508;-85
2023/09/20 06:43:07;;;;;;;8.60;2.55;;;17.90;99.90;;;18.08;68.35;99831.63;4902613;29;20044;-86
2023/09/20 06:45:36;;;;;;;10.07;2.42;;;18.00;99.90;;;18.15;68.46;99828.63;4919414;29;20079;-86
2023/09/20 06:48:06;;;;;;;8.98;2.60;;;18.10;99.90;;;18.22;68.37;99831.84;4919402;29;20059;-86
2023/09/20 06:50:35;;;;;;;6.50;2.70;;;18.10;99.90;;;18.25;68.37;99823.16;4902968;29;20433;-86
2023/09/20 06:53:04;;;;;;;6.25;2.55;;;18.10;99.90;;;18.26;68.49;99827.50;4902422;29;20510;-87
2023/09/20 06:55:33;;;;;;;7.80;3.00;;;18.10;99.90;;;18.16;67.92;99827.56;4902687;29;20048;-87
2023/09/20 06:58:00;;;;;;;10.07;2.38;;;18.10;99.90;;;18.20;68.24;99826.72;4919542;29;20539;-86
2023/09/20 07:00:28;;;;;;;5.68;2.13;;;18.10;99.90;;;18.25;68.95;99815.06;4919178;29;20062;-86
2023/09/20 07:02:57;;;;;;;6.45;2.30;;;18.10;99.90;;;18.30;68.61;99825.03;4902435;29;20056;-86
2023/09/20 07:05:28;;;;;;;7.43;2.50;;;18.20;99.90;;;18.33;68.76;99829.88;4901854;29;20481;-86
2023/09/20 07:07:56;;;;;;;7.57;2.40;;;18.20;99.90;;;18.28;67.78;99818.03;4902785;29;20062;-86
2023/09/20 07:10:26;;;;;;;7.43;2.20;;;18.20;99.90;;;18.25;68.18;99828.56;4901924;29;20040;-86
2023/09/20 07:12:54;;;;;;;8.40;2.30;;;18.20;99.90;;;18.21;68.27;99824.84;4919256;29;20044;-86
2023/09/20 07:15:26;;;;;;;8.15;2.35;;;18.20;99.90;;;18.23;68.39;99820.75;4887182;29;20048;-86
2023/09/20 07:18:00;;;;;;;;;;;18.20;99.90;;;18.29;68.22;99818.84;4918612;29;20044;-86
2023/09/20 07:20:28;;;;;;;5.95;2.20;;;18.20;99.90;;;18.30;67.96;99827.72;4919044;29;19930;-88
2023/09/20 07:22:56;;;;;;;6.13;2.42;;;18.20;99.90;;;18.30;68.34;99830.44;4902529;29;20044;-86
2023/09/20 07:25:27;;;;;;;5.20;2.47;;;18.20;99.90;;;18.26;68.08;99833.72;4903183;29;20096;-86
2023/09/20 07:27:58;;;;;;;8.35;2.13;;;18.20;99.90;;;18.30;68.47;99830.44;4921596;29;20052;-86
2023/09/20 07:30:31;;;;;;;7.28;2.80;;;18.30;99.90;;;18.39;68.62;99829.56;4888906;29;20146;-86
2023/09/20 07:33:01;;;;;;;7.80;2.65;;;18.30;99.90;;;18.42;68.47;99841.72;4888070;29;20055;-86
2023/09/20 07:35:37;;;;;;;8.43;2.80;;;18.40;99.90;;;18.48;68.43;99833.31;4903146;29;20052;-86
2023/09/20 07:38:12;;;;;;;7.13;2.28;;;18.40;99.90;;;18.47;68.50;99826.28;4904329;29;20296;-86
2023/09/20 07:40:41;;;;;;;10.13;2.20;;;18.40;99.90;;;18.45;67.27;99827.69;4922534;29;20115;-86
2023/09/20 07:43:10;;;;;;;4.88;2.17;;;18.40;99.90;;;18.48;68.14;99827.91;4922708;29;20060;-87
2023/09/20 07:45:39;;;;;;;6.70;2.03;;;18.50;99.90;;;18.47;68.14;99826.28;4922689;29;20063;-87
2023/09/20 07:48:12;;;;;;;6.35;2.47;;;18.50;99.90;;;18.49;67.38;99816.00;4920367;29;20059;-87
2023/09/20 07:50:41;;;;;;;6.82;2.17;;;18.50;99.90;;;18.51;67.26;99811.16;4905798;29;20054;-86
2023/09/20 07:53:11;;;;;;;6.93;2.17;;;18.60;99.90;;;18.49;67.83;99818.72;4921222;29;20059;-86
2023/09/20 07:55:45;;;;;;;6.88;2.47;;;18.60;99.90;;;18.51;67.45;99826.56;4903705;29;20498;-86
2023/09/20 07:58:19;;;;;;;8.82;2.17;;;18.60;99.90;;;18.53;67.71;99821.66;4895540;29;20408;-86
2023/09/20 08:00:51;;;;;;;5.80;2.35;;;18.60;99.90;;;18.59;67.74;99827.84;4906811;29;20079;-87
2023/09/20 08:03:20;;;;;;;6.90;2.20;;;18.60;99.90;;;18.67;67.68;99827.25;4928730;29;20052;-86
2023/09/20 08:05:50;;;;;;;4.95;2.20;;;18.70;99.90;;;18.70;68.11;99829.44;4891917;29;20224;-87
2023/09/20 08:08:18;;;;;;;8.20;2.42;;;18.80;99.90;;;18.76;67.69;99820.19;4925304;29;20104;-86
2023/09/20 08:10:48;;;;;;;8.10;2.35;;;18.80;99.90;;;18.84;67.22;99818.78;4922421;29;20048;-86
2023/09/20 08:13:16;;;;;;;6.70;1.95;;;18.90;99.90;;;18.88;67.99;99820.63;4922504;29;20048;-86
2023/09/20 08:15:48;;;;;;;6.78;2.20;;;19.00;99.90;;;18.92;66.85;99821.69;4886673;29;20111;-86
2023/09/20 08:21:01;;;;;;;7.20;2.10;;;19.10;99.90;;;18.97;66.43;99816.25;4918178;29;19923;-86
2023/09/20 09:02:15;;;;;;;3.88;1.80;;;19.60;99.90;;;19.24;66.22;99831.97;4910084;29;20044;-86
2023/09/20 09:04:46;;;;;;;5.25;1.70;;;19.40;99.90;;;19.26;66.92;99843.31;4885738;29;20052;-86
2023/09/20 09:07:13;;;;;;;9.18;2.30;;;19.40;99.90;;;19.25;66.64;99847.09;4885020;29;20048;-86
2023/09/20 09:09:41;;;;;;;5.60;2.10;;;19.40;99.90;;;19.27;66.36;99855.72;4916776;29;20049;-86
2023/09/20 09:12:10;;;;;;;7.00;1.70;;;19.40;99.90;;;19.25;66.64;99847.09;4900699;29;20044;-86
2023/09/20 09:14:42;;;;;;;5.22;1.70;;;19.40;99.90;;;19.21;65.87;99847.94;4917499;29;20063;-86
2023/09/20 09:17:11;;;;;;;5.63;1.63;;;19.40;99.90;;;19.17;66.48;99844.19;4901030;29;20062;-86
2023/09/20 09:19:39;;;;;;;4.55;1.80;;;19.30;99.90;;;19.22;66.89;99852.25;4917319;29;20056;-86
2023/09/20 09:22:10;;;;;;;5.70;1.73;;;19.30;99.90;;;19.25;66.95;99841.69;4916093;29;20190;-86
2023/09/20 09:24:45;;;;;;;;;;;19.40;99.90;;;19.24;66.21;99847.41;4917961;29;20051;-86
2023/09/20 09:27:14;;;;;;;4.45;1.92;;;19.40;99.90;;;19.25;67.03;99841.69;4903061;29;19926;-86
2023/09/20 09:29:45;;;;;;;5.07;2.00;;;19.40;99.90;;;19.27;66.20;99838.69;4920054;29;20119;-86
2023/09/20 09:32:14;;;;;;;4.20;1.58;;;19.40;99.90;;;19.27;66.56;99825.97;4916610;29;20040;-86
2023/09/20 09:34:42;;;;;;;3.85;1.65;;;19.40;99.90;;;19.23;66.92;99833.06;4917119;29;20036;-86
2023/09/20 09:37:11;;;;;;;6.40;1.83;;;19.40;99.90;;;19.28;67.03;99826.81;4901785;29;20083;-86
2023/09/20 09:39:41;;;;;;;5.57;2.08;;;19.40;99.90;;;19.32;66.93;99825.13;4917727;29;20151;-86
2023/09/20 09:42:09;;;;;;;5.45;1.80;;;19.40;99.90;;;19.28;67.16;99827.63;4916547;29;20056;-86
2023/09/20 09:44:54;;;;;;;7.25;1.90;;;19.50;99.90;;;19.34;67.74;99828.38;4916949;29;20151;-86
2023/09/20 09:47:24;;;;;;;9.68;2.10;;;19.50;99.90;;;19.39;68.10;99822.09;4901355;29;20052;-86
2023/09/20 09:49:54;;;;;;;4.43;1.90;;;19.50;99.90;;;19.38;67.40;99823.22;4917009;29;20105;-86
2023/09/20 09:52:24;;;;;;;4.47;1.65;;;19.60;99.90;;;19.45;67.62;99821.75;4899899;29;20044;-87
2023/09/20 09:54:53;;;;;;;4.00;2.08;;;19.60;99.90;;;19.46;67.44;99822.56;4915938;29;20055;-86
2023/09/20 09:57:23;;;;;;;6.90;2.00;;;19.70;99.90;;;19.47;67.55;99830.41;4915549;29;20114;-85
2023/09/20 09:59:53;;;;;;;4.57;1.63;;;19.70;99.90;;;19.52;67.31;99816.84;4899802;29;20058;-86
2023/09/20 10:02:24;;;;;;;6.05;2.10;;;19.70;99.90;;;19.54;66.89;99817.34;4915983;29;20139;-86
2023/09/20 10:04:56;;;;;;;6.32;1.90;;;19.70;99.90;;;19.57;67.26;99815.97;4900480;29;20048;-86
2023/09/20 10:07:30;;;;;;;6.18;1.58;;;19.70;99.90;;;19.56;66.67;99812.44;4868397;29;20075;-86
2023/09/20 10:10:08;;;;;;;6.85;2.08;;;19.70;99.90;;;19.60;66.98;99820.03;4917073;29;20100;-86
2023/09/20 10:12:38;;;;;;;5.95;2.10;;;19.80;99.90;;;19.61;67.18;99824.34;4903727;29;20409;-86
2023/09/20 10:15:09;;;;;;;8.35;1.98;;;19.80;99.90;;;19.64;67.61;99827.28;4903106;29;20049;-86
2023/09/20 10:17:46;;;;;;;4.65;1.80;;;19.80;99.90;;;19.66;67.28;99824.28;4887956;29;20044;-86
2023/09/20 10:20:20;;;;;;;4.78;1.83;;;19.80;99.90;;;19.66;66.67;99818.88;4919170;29;20052;-86
2023/09/20 10:22:51;;;;;;;4.70;2.20;;;19.80;99.90;;;19.69;66.97;99818.31;4903135;29;20048;-86
2023/09/20 10:25:32;;;;;;;4.97;2.22;;;19.80;99.90;;;19.74;67.14;99823.66;4919991;29;20056;-86
2023/09/20 10:28:04;;;;;;;6.30;2.10;;;19.90;99.90;;;19.78;66.30;99822.81;4920108;29;20052;-85
2023/09/20 10:30:35;;;;;;;4.63;2.00;;;20.00;99.90;;;19.84;66.69;99811.91;4919917;29;20457;-86
2023/09/20 10:33:04;;;;;;;6.43;2.10;;;20.00;99.90;;;19.85;67.11;99819.75;4918645;29;20067;-86
2023/09/20 10:35:33;;;;;;;6.50;2.20;;;20.00;99.90;;;19.89;67.48;99817.28;4887872;29;20066;-86
2023/09/20 10:38:22;;;;;;;5.03;2.28;;;20.00;99.90;;;19.91;68.12;99817.78;4919412;29;20044;-86
2023/09/20 10:41:03;;;;;;;10.32;2.65;;;20.10;99.90;;;19.92;67.11;99814.78;4918568;29;20052;-86
2023/09/20 10:43:48;;;;;;;5.20;2.28;;;20.10;99.90;;;20.01;67.44;99804.13;4919633;29;20154;-86
2023/09/20 10:46:27;;;;;;;6.00;2.50;;;20.20;99.90;;;20.09;68.23;99802.69;4920166;29;20126;-86
2023/09/20 10:48:54;;;;;;;5.18;2.05;;;20.30;99.90;;;20.15;66.27;99794.19;4919963;29;20050;-86
2023/09/20 10:51:55;;;;;;;7.95;1.98;;;20.40;99.90;;;20.21;67.53;99801.16;4920452;29;20047;-86
2023/09/20 10:54:25;;;;;;;6.05;2.00;;;20.40;99.90;;;20.21;66.37;99798.47;4920941;29;20059;-86
2023/09/20 10:57:07;;;;;;;6.93;2.20;;;20.40;99.90;;;20.21;67.00;99784.91;4903203;29;20052;-86
2023/09/20 10:59:36;;;;;;;6.32;2.28;;;20.40;99.90;;;20.23;65.94;99792.75;4900636;29;20048;-86
2023/09/20 11:02:09;;;;;;;4.40;1.90;;;20.40;99.90;;;20.25;67.28;99782.41;4889265;29;20044;-86
2023/09/20 11:04:38;;;;;;;5.13;1.90;;;20.50;99.90;;;20.23;66.75;99779.19;4919852;29;20119;-86
2023/09/20 11:07:07;;;;;;;5.72;2.10;;;20.40;99.90;;;20.23;65.87;99776.50;4902753;29;20044;-87
2023/09/20 11:09:38;;;;;;;5.45;2.03;;;20.40;99.90;;;20.29;68.07;99773.41;4902587;29;20056;-86
2023/09/20 11:12:08;;;;;;;6.68;2.10;;;20.50;99.90;;;20.33;67.28;99784.47;4902564;29;20048;-86
2023/09/20 11:14:39;;;;;;;5.22;1.52;;;20.50;99.90;;;20.39;66.12;99774.38;4918305;29;20111;-86